createdAt,value
2023-02-25T00:01:51.317Z,100000.75
2023-02-25T00:04:22.709Z,99996.59
2023-02-25T00:06:52.258Z,100004.03
2023-02-25T00:09:20.435Z,99999.06
2023-02-25T00:11:48.482Z,99988.22
2023-02-25T00:14:16.583Z,99987.41
2023-02-25T00:16:44.695Z,99985.94
2023-02-25T00:19:13.712Z,99973.34
2023-02-25T00:21:41.841Z,99964.81
2023-02-25T00:24:16.813Z,99959.88
2023-02-25T00:26:45.602Z,99953.94
2023-02-25T00:29:13.664Z,99946.22
2023-02-25T00:31:41.889Z,99944.97
2023-02-25T00:34:10.043Z,99950.16
2023-02-25T00:36:39.898Z,99951.72
2023-02-25T00:39:09.349Z,99960.56
2023-02-25T00:41:38.944Z,99958.22
2023-02-25T00:44:07.478Z,99953.59
2023-02-25T00:46:36.248Z,99949.34
2023-02-25T00:49:04.442Z,99945.56
2023-02-25T00:51:34.309Z,99947.38
2023-02-25T00:54:02.464Z,99938.25
2023-02-25T00:56:30.807Z,99939.53
2023-02-25T00:59:01.038Z,99931.75
2023-02-25T01:01:31.126Z,99921.66
2023-02-25T01:03:59.774Z,99915.72
2023-02-25T01:06:29.668Z,99907.06
2023-02-25T01:08:58.568Z,99897.41
2023-02-25T01:11:32.312Z,99896.47
2023-02-25T01:14:03.550Z,99892.41
2023-02-25T01:16:34.172Z,99883.09
2023-02-25T01:19:08.254Z,99887.22
2023-02-25T01:21:39.720Z,99885.91
2023-02-25T01:24:09.511Z,99894.56
2023-02-25T01:26:39.599Z,99908.41
2023-02-25T01:29:11.020Z,99926.66
2023-02-25T01:31:39.541Z,99925.06
2023-02-25T01:34:10.161Z,99915.50
2023-02-25T01:36:39.026Z,99908.31
2023-02-25T01:39:09.727Z,99899.34
2023-02-25T01:41:39.586Z,99888.72
2023-02-25T01:44:13.664Z,99894.97
2023-02-25T01:46:43.360Z,99901.31
2023-02-25T01:49:16.313Z,99892.16
2023-02-25T01:51:47.173Z,99889.91
2023-02-25T01:54:16.480Z,99889.31
2023-02-25T01:56:49.711Z,99889.13
2023-02-25T01:59:22.216Z,99897.84
2023-02-25T02:01:50.574Z,99883.03
2023-02-25T02:04:21.192Z,99887.13
2023-02-25T02:06:51.768Z,99876.91
2023-02-25T02:09:23.077Z,99870.59
2023-02-25T02:11:51.122Z,99869.69
2023-02-25T02:14:24.368Z,99871.72
2023-02-25T02:17:14.622Z,99871.16
2023-02-25T02:20:10.080Z,99867.75
2023-02-25T02:22:46.115Z,99849.16
2023-02-25T02:26:00.214Z,99863.63
2023-02-25T02:29:15.700Z,99868.63
2023-02-25T02:31:55.487Z,99867.31
2023-02-25T02:34:38.022Z,99869.22
2023-02-25T02:37:15.130Z,99866.03
2023-02-25T02:39:53.860Z,99864.16
2023-02-25T02:42:32.958Z,99859.53
2023-02-25T02:45:06.717Z,99842.47
2023-02-25T02:47:39.672Z,99852.91
2023-02-25T02:50:10.432Z,99829.34
2023-02-25T02:52:43.440Z,99846.03
2023-02-25T02:55:22.346Z,99844.47
2023-02-25T02:57:52.667Z,99842.34
2023-02-25T03:00:25.025Z,99848.31
2023-02-25T03:03:00.136Z,99849.59
2023-02-25T03:05:30.693Z,99848.59
2023-02-25T03:08:07.115Z,99835.78
2023-02-25T03:10:35.687Z,99848.56
2023-02-25T03:13:03.896Z,99831.19
2023-02-25T03:15:34.434Z,99851.34
2023-02-25T03:18:08.187Z,99854.53
2023-02-25T03:20:41.507Z,99851.25
2023-02-25T03:23:14.009Z,99857.59
2023-02-25T03:25:47.927Z,99852.06
2023-02-25T03:28:26.177Z,99845.16
2023-02-25T03:31:03.129Z,99836.53
2023-02-25T03:33:38.209Z,99842.91
2023-02-25T03:36:12.193Z,99849.94
2023-02-25T03:38:44.558Z,99854.13
2023-02-25T03:41:16.528Z,99841.50
2023-02-25T03:43:47.841Z,99840.78
2023-02-25T03:46:17.824Z,99812.09
2023-02-25T03:48:48.660Z,99828.09
2023-02-25T03:51:20.015Z,99833.97
2023-02-25T03:53:48.082Z,99831.16
2023-02-25T03:56:16.177Z,99802.47
2023-02-25T03:58:45.055Z,99826.16
2023-02-25T04:01:17.894Z,99820.78
2023-02-25T04:03:47.340Z,99824.28
2023-02-25T04:06:16.400Z,99798.44
2023-02-25T04:08:44.851Z,99820.19
2023-02-25T04:11:13.197Z,99822.09
2023-02-25T04:13:41.218Z,99807.22
2023-02-25T04:16:09.689Z,99801.13
2023-02-25T04:18:38.181Z,99798.81
2023-02-25T04:21:08.470Z,99794.97
2023-02-25T04:23:37.064Z,99799.66
2023-02-25T04:26:05.411Z,99800.81
2023-02-25T04:28:33.398Z,99790.13
2023-02-25T04:31:01.459Z,99787.66
2023-02-25T04:33:29.553Z,99791.09
2023-02-25T04:35:57.734Z,99789.72
2023-02-25T04:38:27.078Z,99791.28
2023-02-25T04:40:55.038Z,99779.19
2023-02-25T04:43:23.073Z,99777.91
2023-02-25T04:45:51.403Z,99778.53
2023-02-25T04:48:24.423Z,99777.41
2023-02-25T04:50:52.755Z,99774.69
2023-02-25T04:53:21.019Z,99766.38
2023-02-25T04:55:50.430Z,99774.06
2023-02-25T04:58:18.744Z,99765.09
2023-02-25T05:00:49.001Z,99759.06
2023-02-25T05:03:16.989Z,99761.63
2023-02-25T05:05:44.931Z,99760.34
2023-02-25T05:08:12.900Z,99766.88
2023-02-25T05:10:41.421Z,99763.34
2023-02-25T05:13:10.766Z,99764.31
2023-02-25T05:15:39.034Z,99760.00
2023-02-25T05:18:07.189Z,99761.56
2023-02-25T05:20:35.334Z,99763.28
2023-02-25T05:23:03.295Z,99769.13
2023-02-25T05:25:33.853Z,99772.50
2023-02-25T05:28:01.915Z,99778.53
2023-02-25T05:30:31.272Z,99772.50
2023-02-25T05:32:59.437Z,99771.88
2023-02-25T05:35:27.450Z,99774.19
2023-02-25T05:37:56.169Z,99767.00
2023-02-25T05:40:24.389Z,99772.84
2023-02-25T05:42:52.464Z,99768.41
2023-02-25T05:45:20.616Z,99774.06
2023-02-25T05:47:50.482Z,99770.19
2023-02-25T05:50:18.556Z,99772.22
2023-02-25T05:52:46.993Z,99765.72
2023-02-25T05:55:16.301Z,99762.38
2023-02-25T05:57:44.635Z,99750.13
2023-02-25T06:00:15.215Z,99751.69
2023-02-25T06:02:44.492Z,99751.56
2023-02-25T06:05:14.769Z,99755.88
2023-02-25T06:07:42.831Z,99753.28
2023-02-25T06:10:12.477Z,99748.78
2023-02-25T06:12:40.522Z,99746.34
2023-02-25T06:15:09.925Z,99753.22
2023-02-25T06:17:37.945Z,99754.00
2023-02-25T06:20:07.785Z,99752.25
2023-02-25T06:22:37.303Z,99763.81
2023-02-25T06:25:05.947Z,99769.88
2023-02-25T06:27:34.512Z,99763.78
2023-02-25T06:30:03.370Z,99765.63
2023-02-25T06:32:31.429Z,99773.31
2023-02-25T06:34:59.809Z,99758.81
2023-02-25T06:37:27.827Z,99762.94
2023-02-25T06:39:57.247Z,99751.97
2023-02-25T06:42:25.615Z,99751.06
2023-02-25T06:44:53.576Z,99749.31
2023-02-25T06:47:23.571Z,99734.53
2023-02-25T06:49:51.677Z,99726.09
2023-02-25T06:52:19.680Z,99723.56
2023-02-25T06:54:47.634Z,99724.16
2023-02-25T06:57:16.958Z,99726.09
2023-02-25T06:59:44.906Z,99724.06
2023-02-25T07:02:14.256Z,99718.16
2023-02-25T07:04:44.065Z,99717.66
2023-02-25T07:07:12.807Z,99710.91
2023-02-25T07:09:40.706Z,99701.44
2023-02-25T07:12:09.178Z,99697.91
2023-02-25T07:14:38.816Z,99694.75
2023-02-25T07:17:07.168Z,99689.41
2023-02-25T07:19:35.155Z,99684.78
2023-02-25T07:22:03.318Z,99674.25
2023-02-25T07:24:32.983Z,99672.78
2023-02-25T07:27:01.026Z,99673.28
2023-02-25T07:29:29.082Z,99672.03
2023-02-25T07:31:58.649Z,99668.81
2023-02-25T07:34:26.928Z,99662.81
2023-02-25T07:36:55.238Z,99661.16
2023-02-25T07:39:23.466Z,99656.63
2023-02-25T07:41:51.632Z,99660.47
2023-02-25T07:44:19.620Z,99646.69
2023-02-25T07:46:47.666Z,99649.66
2023-02-25T07:49:17.227Z,99647.56
2023-02-25T07:51:45.150Z,99639.25
2023-02-25T07:54:14.804Z,99639.94
2023-02-25T07:56:42.747Z,99625.91
2023-02-25T07:59:11.468Z,99632.06
2023-02-25T08:01:39.855Z,99630.47
2023-02-25T08:04:10.521Z,99625.63
2023-02-25T08:06:41.584Z,99617.53
2023-02-25T08:09:12.609Z,99608.81
2023-02-25T08:11:41.313Z,99593.63
2023-02-25T08:14:09.273Z,99606.22
2023-02-25T08:16:37.682Z,99599.91
2023-02-25T08:19:06.763Z,99598.56
2023-02-25T08:21:35.178Z,99597.00
2023-02-25T08:24:04.945Z,99599.47
2023-02-25T08:26:32.899Z,99593.06
2023-02-25T08:29:00.945Z,99594.47
2023-02-25T08:31:29.332Z,99601.25
2023-02-25T08:33:59.576Z,99599.19
2023-02-25T08:36:30.576Z,99581.94
2023-02-25T08:38:59.665Z,99584.06
2023-02-25T08:41:30.437Z,99573.41
2023-02-25T08:44:00.617Z,99586.06
2023-02-25T08:46:30.332Z,99580.81
2023-02-25T08:48:59.049Z,99584.75
2023-02-25T08:51:34.526Z,99590.16
2023-02-25T08:54:05.353Z,99585.03
2023-02-25T08:56:36.362Z,99579.66
2023-02-25T08:59:05.261Z,99580.34
2023-02-25T09:01:45.090Z,99579.69
2023-02-25T09:04:14.125Z,99563.47
2023-02-25T09:06:42.545Z,99574.97
2023-02-25T09:09:11.754Z,99570.22
2023-02-25T09:11:42.830Z,99567.00
2023-02-25T09:14:11.740Z,99570.44
2023-02-25T09:16:39.955Z,99559.53
2023-02-25T09:19:08.699Z,99554.91
2023-02-25T09:21:37.947Z,99556.28
2023-02-25T09:24:06.582Z,99544.09
2023-02-25T09:26:35.087Z,99546.75
2023-02-25T09:29:06.272Z,99551.72
2023-02-25T09:31:37.214Z,99543.47
2023-02-25T09:34:07.831Z,99549.72
2023-02-25T09:36:36.203Z,99540.00
2023-02-25T09:39:10.298Z,99533.28
2023-02-25T09:41:48.216Z,99537.88
2023-02-25T09:44:20.767Z,99533.44
2023-02-25T09:46:52.622Z,99523.63
2023-02-25T09:49:27.335Z,99518.53
2023-02-25T09:52:02.391Z,99517.56
2023-02-25T09:54:36.120Z,99514.44
2023-02-25T09:57:07.706Z,99514.94
2023-02-25T09:59:37.195Z,99509.19
2023-02-25T10:02:22.317Z,99509.66
2023-02-25T10:05:04.974Z,99507.97
2023-02-25T10:07:37.771Z,99497.69
2023-02-25T10:10:15.363Z,99511.16
2023-02-25T10:12:53.492Z,99510.78
2023-02-25T10:15:52.198Z,99510.22
2023-02-25T10:18:35.302Z,99510.50
2023-02-25T10:21:14.706Z,99504.34
2023-02-25T10:23:59.059Z,99502.59
2023-02-25T10:26:32.643Z,99501.00
2023-02-25T10:29:05.587Z,99505.47
2023-02-25T10:31:35.704Z,99490.59
2023-02-25T10:34:21.277Z,99492.00
2023-02-25T10:36:54.958Z,99471.88
2023-02-25T10:39:23.488Z,99488.34
2023-02-25T10:41:51.935Z,99463.38
2023-02-25T10:44:20.200Z,99443.84
2023-02-25T10:46:54.536Z,99432.59
2023-02-25T10:49:25.540Z,99426.53
2023-02-25T10:52:04.618Z,99436.44
2023-02-25T10:54:35.499Z,99454.09
2023-02-25T10:57:09.645Z,99458.09
2023-02-25T10:59:40.108Z,99450.25
2023-02-25T11:02:23.604Z,99438.97
2023-02-25T11:04:53.850Z,99426.44
2023-02-25T11:07:32.297Z,99440.84
2023-02-25T11:10:16.185Z,99432.25
2023-02-25T11:12:46.372Z,99420.75
2023-02-25T11:15:46.180Z,99419.03
2023-02-25T11:18:23.087Z,99411.94
2023-02-25T11:20:54.887Z,99410.84
2023-02-25T11:23:28.180Z,99405.69
2023-02-25T11:25:57.627Z,99398.56
2023-02-25T11:28:32.303Z,99408.75
2023-02-25T11:31:11.782Z,99392.63
2023-02-25T11:33:45.062Z,99395.81
2023-02-25T11:36:14.031Z,99374.22
2023-02-25T11:38:43.304Z,99381.50
2023-02-25T11:41:20.067Z,99381.09
2023-02-25T11:43:48.427Z,99388.81
2023-02-25T11:46:22.391Z,99393.19
2023-02-25T11:48:54.520Z,99405.63
2023-02-25T11:51:27.755Z,99413.38
2023-02-25T11:54:25.931Z,99421.38
2023-02-25T11:56:58.930Z,99416.13
2023-02-25T11:59:35.137Z,99421.59
2023-02-25T12:02:21.472Z,99420.78
2023-02-25T12:05:31.757Z,99406.22
2023-02-25T12:08:14.017Z,99410.78
2023-02-25T12:11:16.143Z,99409.78
2023-02-25T12:14:26.264Z,99399.22
2023-02-25T12:17:28.234Z,99397.75
2023-02-25T12:20:27.840Z,99384.72
2023-02-25T12:23:42.279Z,99401.03
2023-02-25T12:26:15.206Z,99396.63
2023-02-25T12:29:01.436Z,99402.94
2023-02-25T12:32:11.319Z,99401.44
2023-02-25T12:35:00.263Z,99406.78
2023-02-25T12:37:47.705Z,99388.38
2023-02-25T12:40:39.203Z,99393.31
2023-02-25T12:43:18.021Z,99405.66
2023-02-25T12:46:08.742Z,99392.91
2023-02-25T12:49:05.479Z,99395.78
2023-02-25T12:51:48.315Z,99399.50
2023-02-25T12:54:36.164Z,99395.47
2023-02-25T12:57:33.124Z,99402.84
2023-02-25T13:00:42.121Z,99402.88
2023-02-25T13:03:28.255Z,99403.59
2023-02-25T13:06:08.836Z,99398.38
2023-02-25T13:09:07.488Z,99402.50
2023-02-25T13:12:10.562Z,99396.59
2023-02-25T13:14:48.221Z,99393.03
2023-02-25T13:17:29.228Z,99398.44
2023-02-25T13:20:31.594Z,99391.63
2023-02-25T13:23:13.469Z,99391.63
2023-02-25T13:25:58.926Z,99386.28
2023-02-25T13:28:50.102Z,99389.72
2023-02-25T13:31:33.304Z,99377.09
2023-02-25T13:34:14.535Z,99393.72
2023-02-25T13:36:54.305Z,99375.47
2023-02-25T13:39:47.980Z,99387.25
2023-02-25T13:42:57.345Z,99378.75
2023-02-25T13:45:39.104Z,99377.41
2023-02-25T13:48:31.747Z,99379.19
2023-02-25T13:51:19.836Z,99364.38
2023-02-25T13:54:10.630Z,99369.28
2023-02-25T13:56:53.287Z,99351.34
2023-02-25T13:59:35.427Z,99366.41
2023-02-25T14:02:22.098Z,99363.94
2023-02-25T14:05:09.890Z,99365.59
2023-02-25T14:07:52.970Z,99349.13
2023-02-25T14:10:30.469Z,99367.09
2023-02-25T14:13:31.009Z,99360.66
2023-02-25T14:16:07.825Z,99359.59
2023-02-25T14:18:47.605Z,99343.63
2023-02-25T14:21:43.382Z,99331.38
2023-02-25T14:24:18.384Z,99322.72
2023-02-25T14:27:00.575Z,99332.81
2023-02-25T14:29:38.858Z,99337.13
2023-02-25T14:32:28.592Z,99333.78
2023-02-25T14:35:16.713Z,99315.28
2023-02-25T14:38:00.592Z,99325.13
2023-02-25T14:40:35.445Z,99324.84
2023-02-25T14:43:17.798Z,99322.09
2023-02-25T14:45:52.195Z,99317.19
2023-02-25T14:48:27.803Z,99313.28
2023-02-25T14:51:15.516Z,99314.81
2023-02-25T14:54:31.519Z,99306.31
2023-02-25T14:57:16.876Z,99296.94
2023-02-25T15:00:23.154Z,99308.50
2023-02-25T15:03:14.053Z,99299.97
2023-02-25T15:05:57.910Z,99294.91
2023-02-25T15:08:51.258Z,99293.00
2023-02-25T15:11:40.263Z,99291.06
2023-02-25T15:14:34.910Z,99298.59
2023-02-25T15:17:20.570Z,99295.34
2023-02-25T15:20:15.319Z,99298.91
2023-02-25T15:22:54.181Z,99304.94
2023-02-25T15:25:38.566Z,99300.25
2023-02-25T15:28:34.258Z,99306.88
2023-02-25T15:31:30.420Z,99305.75
2023-02-25T15:34:44.260Z,99317.59
2023-02-25T15:37:59.671Z,99313.19
2023-02-25T15:40:45.082Z,99317.97
2023-02-25T15:43:39.773Z,99314.56
2023-02-25T15:46:38.185Z,99311.13
2023-02-25T15:49:20.445Z,99316.31
2023-02-25T15:51:51.534Z,99308.47
2023-02-25T15:54:49.341Z,99312.31
2023-02-25T15:57:39.012Z,99319.75
2023-02-25T16:00:56.300Z,99321.63
2023-02-25T16:03:39.630Z,99322.88
2023-02-25T16:06:14.821Z,99324.41
2023-02-25T16:08:52.579Z,99336.59
2023-02-25T16:11:26.622Z,99327.69
2023-02-25T16:13:54.797Z,99330.31
2023-02-25T16:16:24.243Z,99320.38
2023-02-25T16:18:54.309Z,99333.53
2023-02-25T16:21:27.578Z,99329.03
2023-02-25T16:23:56.281Z,99339.38
2023-02-25T16:26:35.467Z,99333.34
2023-02-25T16:29:14.343Z,99339.44
2023-02-25T16:31:48.221Z,99329.13
2023-02-25T16:34:23.224Z,99336.22
2023-02-25T16:37:01.406Z,99337.56
2023-02-25T16:39:31.533Z,99337.63
2023-02-25T16:42:04.749Z,99340.56
2023-02-25T16:44:38.570Z,99338.25
2023-02-25T16:47:07.848Z,99336.25
2023-02-25T16:49:40.587Z,99344.59
2023-02-25T16:52:18.047Z,99339.38
2023-02-25T16:54:48.067Z,99340.97
2023-02-25T16:57:22.088Z,99349.78
2023-02-25T16:59:52.137Z,99347.94
2023-02-25T17:02:25.735Z,99347.78
2023-02-25T17:04:55.450Z,99344.28
2023-02-25T17:07:28.465Z,99343.69
2023-02-25T17:09:59.744Z,99351.69
2023-02-25T17:12:33.471Z,99349.47
2023-02-25T17:15:04.083Z,99348.47
2023-02-25T17:17:36.348Z,99351.88
2023-02-25T17:20:09.662Z,99349.06
2023-02-25T17:22:40.248Z,99354.56
2023-02-25T17:25:16.137Z,99364.72
2023-02-25T17:27:48.051Z,99357.47
2023-02-25T17:30:38.873Z,99359.88
2023-02-25T17:33:07.803Z,99359.13
2023-02-25T17:35:37.603Z,99357.47
2023-02-25T17:38:07.226Z,99367.25
2023-02-25T17:40:35.873Z,99363.09
2023-02-25T17:43:19.556Z,99367.59
2023-02-25T17:45:52.157Z,99370.06
2023-02-25T17:48:23.232Z,99373.47
2023-02-25T17:50:58.096Z,99369.84
2023-02-25T17:53:42.086Z,99373.75
2023-02-25T17:56:18.505Z,99378.59
2023-02-25T17:58:49.317Z,99369.13
2023-02-25T18:01:27.655Z,99387.50
2023-02-25T18:03:56.536Z,99380.81
2023-02-25T18:06:41.052Z,99387.22
2023-02-25T18:09:31.436Z,99386.03
2023-02-25T18:12:01.739Z,99389.56
2023-02-25T18:14:36.318Z,99399.38
2023-02-25T18:17:14.701Z,99402.53
2023-02-25T18:19:46.291Z,99393.06
2023-02-25T18:22:33.123Z,99387.69
2023-02-25T18:25:06.497Z,99401.81
2023-02-25T18:27:38.184Z,99411.41
2023-02-25T18:30:20.538Z,99405.41
2023-02-25T18:32:48.922Z,99415.00
2023-02-25T18:35:17.928Z,99405.41
2023-02-25T18:37:47.271Z,99419.72
2023-02-25T18:40:23.160Z,99409.47
2023-02-25T18:42:51.901Z,99415.69
2023-02-25T18:45:22.682Z,99416.75
2023-02-25T18:47:52.214Z,99412.41
2023-02-25T18:50:21.623Z,99399.13
2023-02-25T18:52:50.220Z,99400.63
2023-02-25T18:55:23.600Z,99394.56
2023-02-25T18:57:52.243Z,99380.16
2023-02-25T19:00:23.204Z,99371.97
2023-02-25T19:02:53.183Z,99351.84
2023-02-25T19:05:23.432Z,99345.81
2023-02-25T19:07:51.697Z,99350.63
2023-02-25T19:10:23.561Z,99326.75
2023-02-25T19:12:53.962Z,99336.38
2023-02-25T19:15:23.341Z,99315.63
2023-02-25T19:17:51.449Z,99342.25
2023-02-25T19:20:21.525Z,99347.22
2023-02-25T19:22:50.980Z,99335.28
2023-02-25T19:25:22.829Z,99312.22
2023-02-25T19:27:51.588Z,99343.16
2023-02-25T19:30:21.053Z,99351.06
2023-02-25T19:32:49.267Z,99352.31
2023-02-25T19:35:17.550Z,99339.84
2023-02-25T19:37:45.859Z,99346.00
2023-02-25T19:40:15.952Z,99363.47
2023-02-25T19:42:46.395Z,99368.00
2023-02-25T19:45:17.810Z,99357.09
2023-02-25T19:47:46.095Z,99340.34
2023-02-25T19:50:15.831Z,99348.78
2023-02-25T19:52:44.226Z,99371.53
2023-02-25T19:55:13.630Z,99372.72
2023-02-25T19:57:42.675Z,99378.84
2023-02-25T20:00:16.394Z,99378.97
2023-02-25T20:02:45.063Z,99367.69
2023-02-25T20:05:14.738Z,99372.09
2023-02-25T20:07:43.328Z,99380.28
2023-02-25T20:10:13.756Z,99388.78
2023-02-25T20:12:42.796Z,99398.13
2023-02-25T20:15:15.022Z,99398.22
2023-02-25T20:17:44.716Z,99396.53
2023-02-25T20:20:14.746Z,99391.28
2023-02-25T20:22:43.354Z,99392.41
2023-02-25T20:25:13.445Z,99393.34
2023-02-25T20:27:43.815Z,99396.91
2023-02-25T20:30:16.582Z,99400.06
2023-02-25T20:32:46.417Z,99390.94
2023-02-25T20:35:20.739Z,99396.97
2023-02-25T20:37:59.115Z,99398.13
2023-02-25T20:40:27.532Z,99404.50
2023-02-25T20:42:55.773Z,99407.28
2023-02-25T20:45:27.869Z,99398.91
2023-02-25T20:47:56.312Z,99403.97
2023-02-25T20:50:28.715Z,99397.13
2023-02-25T20:52:57.306Z,99387.25
2023-02-25T20:55:25.789Z,99408.78
2023-02-25T20:57:53.886Z,99414.25
2023-02-25T21:00:22.146Z,99421.91
2023-02-25T21:02:51.593Z,99413.75
2023-02-25T21:05:19.723Z,99405.19
2023-02-25T21:07:47.838Z,99413.94
2023-02-25T21:10:16.086Z,99400.81
2023-02-25T21:12:44.156Z,99372.88
2023-02-25T21:15:13.039Z,99394.69
2023-02-25T21:17:41.166Z,99398.16
2023-02-25T21:20:13.040Z,99400.59
2023-02-25T21:22:41.548Z,99403.00
2023-02-25T21:25:10.291Z,99401.66
2023-02-25T21:27:38.344Z,99407.06
2023-02-25T21:30:07.612Z,99410.22
2023-02-25T21:32:35.675Z,99413.84
2023-02-25T21:35:04.270Z,99422.50
2023-02-25T21:37:33.796Z,99421.28
2023-02-25T21:40:01.921Z,99421.88
2023-02-25T21:42:30.396Z,99410.09
2023-02-25T21:44:58.832Z,99424.13
2023-02-25T21:47:26.823Z,99422.69
2023-02-25T21:49:55.319Z,99429.47
2023-02-25T21:52:23.434Z,99433.94
2023-02-25T21:54:52.937Z,99432.03
2023-02-25T21:57:21.481Z,99426.72
2023-02-25T21:59:49.839Z,99421.31
2023-02-25T22:02:17.814Z,99424.63
2023-02-25T22:04:48.151Z,99419.91
2023-02-25T22:07:16.246Z,99421.78
2023-02-25T22:09:44.270Z,99410.94
2023-02-25T22:12:13.877Z,99416.69
2023-02-25T22:14:42.088Z,99412.34
2023-02-25T22:17:10.118Z,99406.91
2023-02-25T22:19:38.112Z,99428.63
2023-02-25T22:22:06.206Z,99424.59
2023-02-25T22:24:34.447Z,99414.72
2023-02-25T22:27:02.612Z,99420.38
2023-02-25T22:29:32.085Z,99418.84
2023-02-25T22:32:00.901Z,99424.63
2023-02-25T22:34:29.096Z,99427.91
2023-02-25T22:36:57.115Z,99416.56
2023-02-25T22:39:25.232Z,99418.25
2023-02-25T22:41:53.202Z,99426.03
2023-02-25T22:44:22.027Z,99428.06
2023-02-25T22:46:51.913Z,99399.81
2023-02-25T22:49:19.875Z,99435.84
2023-02-25T22:51:48.587Z,99435.03
2023-02-25T22:54:18.679Z,99432.75
2023-02-25T22:56:47.524Z,99430.38
2023-02-25T22:59:15.731Z,99430.25
2023-02-25T23:01:43.726Z,99423.91
2023-02-25T23:04:13.216Z,99429.09
2023-02-25T23:06:44.342Z,99428.59
2023-02-25T23:09:14.204Z,99423.06
2023-02-25T23:11:44.998Z,99424.84
2023-02-25T23:14:14.415Z,99421.28
2023-02-25T23:16:45.627Z,99422.94
2023-02-25T23:19:19.841Z,99410.69
2023-02-25T23:21:48.038Z,99407.00
2023-02-25T23:24:19.045Z,99409.34
2023-02-25T23:26:50.571Z,99417.75
2023-02-25T23:29:19.626Z,99421.88
2023-02-25T23:31:49.941Z,99426.56
2023-02-25T23:34:23.516Z,99428.06
2023-02-25T23:36:51.842Z,99420.16
2023-02-25T23:39:19.885Z,99436.28
2023-02-25T23:44:17.153Z,99423.22
2023-02-25T23:46:45.970Z,99429.94
2023-02-25T23:49:16.443Z,99421.91
2023-02-25T23:51:48.646Z,99413.63
2023-02-25T23:54:19.411Z,99413.88
2023-02-25T23:56:47.764Z,99423.81
2023-02-25T23:59:15.836Z,99411.78
